Shoshone, California Weather observations

Data are for observation ending at time listed.
 Day   Time    Ave.   Ave.  Ave.  Vector   Max.   Stn.    Total    Solar   Ave.  
  of    of     Air    Rel.  Wind   Wind    Wind   Baro.  Precip.   Rad.    Soil  
Year   Day     Temp.  Hum.  Speed  Dir.    Gust   Pres.                    Temp. 
2015   (PST)    F      %     mph   deg.    mph     mb.     in.     W/m2     F   
------------------------------------------------------------------------------
 240   15:00  109.0    11    6.5   178     14.8    962     0.00     721    99999.0
 240   16:00  109.3    11    4.8   178     16.5    961     0.00     505    99999.0
 240   17:00  108.7    12    3.0   162     14.4    961     0.00     300    99999.0
 240   18:00  106.5    12    5.0   189     13.0    961     0.00     123    99999.0
 240   19:00  103.2    13    3.4   180      9.4    961     0.00       6    99999.0
 240   20:00   98.9    14    0.6   114      4.2    961     0.00       0    99999.0
 240   21:00   96.2    15    1.0    98      2.5    962     0.00       0    99999.0
 240   22:00   95.1    16    2.0   188     13.7    962     0.00       0    99999.0
 240   23:00   96.6    16    3.9   170     11.5    962     0.00       0    99999.0
 241    0:00   94.1    16    1.5   163      5.3    962     0.00       0    99999.0
 241    1:00   92.3    16    1.1   165      6.1    963     0.00       0    99999.0
 241    2:00   91.5    16    1.1   164      6.9    963     0.00       0    99999.0
 241    3:00   88.3    19    0.9   165      5.5    963     0.00       0    99999.0
 241    4:00   87.5    20    1.7   160      8.5    963     0.00       0    99999.0
 241    5:00   88.7    19    3.8   159      8.2    963     0.00       0    99999.0
 241    6:00   88.3    19    4.9   160     10.2    964     0.00      28    99999.0
 241    7:00   90.0    19    4.8   158     12.6    964     0.00     199    99999.0
 241    8:00   93.3    16    7.6   162     13.6    965     0.00     408    99999.0
 241    9:00   96.9    15    4.4   159     12.2    965     0.00     602    99999.0
 241   10:00   99.8    14    4.9   159     13.2    965     0.00     766    99999.0
 241   11:00  102.5    13    3.7   154     12.8    965     0.00     878    99999.0
 241   12:00  104.5    12    5.1   162     14.5    964     0.00     932    99999.0
 241   13:00  105.8    11    4.7   159     16.1    963     0.00     921    99999.0
 241   14:00  107.5    10    6.6   173     18.8    962     0.00     847    99999.0

Return to Shoshone, California graphs page.


Western Regional Climate Center,wrcc@dri.edu